Skip Navigation LinksHome page > Weather > Current weather Skip Navigation Links

Current Weather

Ben-Gurion Intl Apt, Tel Aviv, Israel

For information only: do not use for flight planning or navigation.
Latest weather
Observation time Tuesday, September 2, 2014 7:20 PM IDT
Local time Tuesday, September 2, 2014 7:37 PM IDT
Flight conditions Visual Meteorological Conditions
Winds
Wind direction West-Northwest (290°)
Wind speed 9 mph
Visibility 6.2 mi.
Sky condition
Ceiling unlimited
Cloud layer scattered clouds 3,400 ft.
Temperature 82°F
Dewpoint 68°F
Altimeter 29.80 in.Hg
Derived measurements
Relative humidity 62%
Heat index 85°F
Density altitude 2117 ft.
Remarks
No significant changes expected in the next two hours.
METAR LLBG 021620Z 29008KT 9999 SCT034 28/20 Q1009 NOSIG

Settings

Location code

InnerDrive.Weather 4.0.5356.0 Release CLR 4.0.30319.34014
Copyright ©2014 Inner Drive Technology. All rights reserved. Portions Copyright ©1986-2014 David Braverman.

Find weather

Site navigation


Skip Navigation Links

Place info

Page info

PayPal - The safer, easier way to pay online!

Return home.

Copyright ©2014 Inner Drive Technology. Purveyors of fine, hand-crafted computer software. Page printed 2014-09-02T16:37:21 UTC.